sensor_id;sensor_type;location;lat;lon;timestamp;P1;durP1;ratioP1;P2;durP2;ratioP2
53036;SDS011;38924;52.134;4.666;2023-04-01T00:00:16;89.20;;;28.00;;
53036;SDS011;38924;52.134;4.666;2023-04-01T00:02:42;104.72;;;29.42;;
53036;SDS011;38924;52.134;4.666;2023-04-01T00:05:08;74.32;;;26.13;;
53036;SDS011;38924;52.134;4.666;2023-04-01T00:07:36;83.72;;;27.75;;
53036;SDS011;38924;52.134;4.666;2023-04-01T00:10:06;79.00;;;27.25;;
53036;SDS011;38924;52.134;4.666;2023-04-01T00:12:32;83.90;;;27.00;;
53036;SDS011;38924;52.134;4.666;2023-04-01T00:14:58;67.80;;;26.90;;
53036;SDS011;38924;52.134;4.666;2023-04-01T00:17:24;81.45;;;27.75;;
53036;SDS011;38924;52.134;4.666;2023-04-01T00:19:50;73.82;;;25.30;;
53036;SDS011;38924;52.134;4.666;2023-04-01T00:22:16;66.88;;;23.92;;
53036;SDS011;38924;52.134;4.666;2023-04-01T00:24:42;69.97;;;24.58;;
53036;SDS011;38924;52.134;4.666;2023-04-01T00:27:07;67.25;;;22.60;;
53036;SDS011;38924;52.134;4.666;2023-04-01T00:29:33;59.30;;;21.73;;
53036;SDS011;38924;52.134;4.666;2023-04-01T00:32:05;65.50;;;24.98;;
53036;SDS011;38924;52.134;4.666;2023-04-01T00:34:30;61.55;;;23.67;;
53036;SDS011;38924;52.134;4.666;2023-04-01T00:36:59;67.75;;;23.98;;
53036;SDS011;38924;52.134;4.666;2023-04-01T00:39:24;68.38;;;23.80;;
53036;SDS011;38924;52.134;4.666;2023-04-01T00:41:50;81.63;;;26.10;;
53036;SDS011;38924;52.134;4.666;2023-04-01T00:44:20;66.30;;;23.60;;
53036;SDS011;38924;52.134;4.666;2023-04-01T00:46:46;54.13;;;21.10;;
53036;SDS011;38924;52.134;4.666;2023-04-01T00:49:12;53.85;;;21.15;;
53036;SDS011;38924;52.134;4.666;2023-04-01T00:51:38;51.47;;;18.85;;
53036;SDS011;38924;52.134;4.666;2023-04-01T00:54:08;58.40;;;18.63;;
53036;SDS011;38924;52.134;4.666;2023-04-01T00:56:36;49.20;;;18.55;;
53036;SDS011;38924;52.134;4.666;2023-04-01T00:59:06;50.17;;;18.25;;
53036;SDS011;38924;52.134;4.666;2023-04-01T01:01:34;56.28;;;18.88;;
53036;SDS011;38924;52.134;4.666;2023-04-01T01:04:01;48.95;;;17.05;;
53036;SDS011;38924;52.134;4.666;2023-04-01T01:11:29;51.25;;;19.58;;
53036;SDS011;38924;52.134;4.666;2023-04-01T01:14:09;49.97;;;19.42;;
53036;SDS011;38924;52.134;4.666;2023-04-01T01:16:40;53.38;;;19.58;;
53036;SDS011;38924;52.134;4.666;2023-04-01T01:27:07;43.95;;;17.20;;
53036;SDS011;38924;52.134;4.666;2023-04-01T01:37:33;47.42;;;19.73;;
53036;SDS011;38924;52.134;4.666;2023-04-01T01:40:04;51.92;;;19.63;;
53036;SDS011;38924;52.134;4.666;2023-04-01T01:42:33;31.48;;;16.85;;
53036;SDS011;38924;52.134;4.666;2023-04-01T01:45:00;49.40;;;19.65;;
53036;SDS011;38924;52.134;4.666;2023-04-01T01:47:28;43.30;;;18.38;;
53036;SDS011;38924;52.134;4.666;2023-04-01T01:49:55;41.75;;;16.45;;
53036;SDS011;38924;52.134;4.666;2023-04-01T01:52:21;34.53;;;17.13;;
53036;SDS011;38924;52.134;4.666;2023-04-01T01:54:51;31.58;;;15.63;;
53036;SDS011;38924;52.134;4.666;2023-04-01T01:57:20;33.40;;;15.95;;
53036;SDS011;38924;52.134;4.666;2023-04-01T01:59:54;32.20;;;16.15;;
53036;SDS011;38924;52.134;4.666;2023-04-01T02:02:23;28.42;;;13.75;;
53036;SDS011;38924;52.134;4.666;2023-04-01T02:04:50;22.00;;;14.40;;
53036;SDS011;38924;52.134;4.666;2023-04-01T02:07:18;27.73;;;14.98;;
53036;SDS011;38924;52.134;4.666;2023-04-01T02:09:46;21.48;;;13.40;;
53036;SDS011;38924;52.134;4.666;2023-04-01T02:12:14;26.65;;;13.55;;
53036;SDS011;38924;52.134;4.666;2023-04-01T02:14:49;26.77;;;13.90;;
53036;SDS011;38924;52.134;4.666;2023-04-01T02:17:18;26.33;;;15.05;;
53036;SDS011;38924;52.134;4.666;2023-04-01T02:19:52;30.27;;;14.43;;
53036;SDS011;38924;52.134;4.666;2023-04-01T02:24:44;35.22;;;16.13;;
53036;SDS011;38924;52.134;4.666;2023-04-01T02:27:11;32.08;;;17.27;;
53036;SDS011;38924;52.134;4.666;2023-04-01T02:29:37;37.05;;;18.10;;
53036;SDS011;38924;52.134;4.666;2023-04-01T02:32:06;52.28;;;22.70;;
53036;SDS011;38924;52.134;4.666;2023-04-01T02:34:35;66.22;;;26.20;;
53036;SDS011;38924;52.134;4.666;2023-04-01T02:37:01;76.57;;;26.48;;
53036;SDS011;38924;52.134;4.666;2023-04-01T02:39:27;82.63;;;28.92;;
53036;SDS011;38924;52.134;4.666;2023-04-01T02:41:53;81.50;;;28.95;;
53036;SDS011;38924;52.134;4.666;2023-04-01T02:44:18;81.50;;;27.80;;
53036;SDS011;38924;52.134;4.666;2023-04-01T02:46:44;78.13;;;29.00;;
53036;SDS011;38924;52.134;4.666;2023-04-01T02:49:10;70.20;;;28.75;;
53036;SDS011;38924;52.134;4.666;2023-04-01T02:51:36;84.82;;;31.45;;
53036;SDS011;38924;52.134;4.666;2023-04-01T02:54:02;72.53;;;28.75;;
53036;SDS011;38924;52.134;4.666;2023-04-01T02:56:28;85.68;;;30.25;;
53036;SDS011;38924;52.134;4.666;2023-04-01T02:58:54;73.95;;;28.63;;
53036;SDS011;38924;52.134;4.666;2023-04-01T03:01:20;72.20;;;26.70;;
53036;SDS011;38924;52.134;4.666;2023-04-01T03:03:48;58.58;;;23.23;;
53036;SDS011;38924;52.134;4.666;2023-04-01T03:06:17;34.13;;;18.90;;
53036;SDS011;38924;52.134;4.666;2023-04-01T03:08:44;28.83;;;15.85;;
53036;SDS011;38924;52.134;4.666;2023-04-01T03:11:10;27.55;;;16.50;;
53036;SDS011;38924;52.134;4.666;2023-04-01T03:13:36;25.77;;;15.05;;
53036;SDS011;38924;52.134;4.666;2023-04-01T03:16:02;34.58;;;17.17;;
53036;SDS011;38924;52.134;4.666;2023-04-01T03:18:28;40.72;;;19.08;;
53036;SDS011;38924;52.134;4.666;2023-04-01T03:20:53;34.85;;;18.17;;
53036;SDS011;38924;52.134;4.666;2023-04-01T03:23:19;40.58;;;19.42;;
53036;SDS011;38924;52.134;4.666;2023-04-01T03:25:46;40.83;;;21.25;;
53036;SDS011;38924;52.134;4.666;2023-04-01T03:28:12;48.55;;;22.50;;
53036;SDS011;38924;52.134;4.666;2023-04-01T03:30:38;54.03;;;24.00;;
53036;SDS011;38924;52.134;4.666;2023-04-01T03:33:04;62.30;;;25.30;;
53036;SDS011;38924;52.134;4.666;2023-04-01T03:35:31;68.05;;;26.38;;
53036;SDS011;38924;52.134;4.666;2023-04-01T03:37:57;67.45;;;26.70;;
53036;SDS011;38924;52.134;4.666;2023-04-01T03:40:22;49.80;;;25.85;;
53036;SDS011;38924;52.134;4.666;2023-04-01T03:42:48;68.65;;;28.75;;
53036;SDS011;38924;52.134;4.666;2023-04-01T03:45:17;57.08;;;25.42;;
53036;SDS011;38924;52.134;4.666;2023-04-01T03:47:42;62.22;;;25.48;;
53036;SDS011;38924;52.134;4.666;2023-04-01T03:50:08;49.78;;;25.38;;
53036;SDS011;38924;52.134;4.666;2023-04-01T03:52:34;59.33;;;28.13;;
53036;SDS011;38924;52.134;4.666;2023-04-01T03:55:00;59.08;;;27.80;;
53036;SDS011;38924;52.134;4.666;2023-04-01T03:57:26;51.28;;;25.23;;
53036;SDS011;38924;52.134;4.666;2023-04-01T03:59:54;63.67;;;28.65;;
53036;SDS011;38924;52.134;4.666;2023-04-01T04:02:20;62.90;;;27.70;;
53036;SDS011;38924;52.134;4.666;2023-04-01T04:04:46;49.92;;;25.58;;
53036;SDS011;38924;52.134;4.666;2023-04-01T04:07:12;50.15;;;27.30;;
53036;SDS011;38924;52.134;4.666;2023-04-01T04:10:00;49.67;;;25.92;;
53036;SDS011;38924;52.134;4.666;2023-04-01T04:12:26;57.10;;;26.90;;
53036;SDS011;38924;52.134;4.666;2023-04-01T04:14:58;52.42;;;26.75;;
53036;SDS011;38924;52.134;4.666;2023-04-01T04:17:24;40.05;;;24.42;;
53036;SDS011;38924;52.134;4.666;2023-04-01T04:19:49;47.95;;;26.10;;
53036;SDS011;38924;52.134;4.666;2023-04-01T04:22:15;50.20;;;24.75;;
53036;SDS011;38924;52.134;4.666;2023-04-01T04:24:41;51.42;;;23.95;;
53036;SDS011;38924;52.134;4.666;2023-04-01T04:27:10;55.85;;;26.05;;
53036;SDS011;38924;52.134;4.666;2023-04-01T04:29:43;37.53;;;21.35;;
53036;SDS011;38924;52.134;4.666;2023-04-01T04:32:09;43.70;;;22.92;;
53036;SDS011;38924;52.134;4.666;2023-04-01T04:34:35;50.25;;;25.02;;
53036;SDS011;38924;52.134;4.666;2023-04-01T04:37:01;46.65;;;22.35;;
53036;SDS011;38924;52.134;4.666;2023-04-01T04:39:31;38.85;;;23.05;;
53036;SDS011;38924;52.134;4.666;2023-04-01T04:41:56;45.50;;;24.55;;
53036;SDS011;38924;52.134;4.666;2023-04-01T04:44:22;52.08;;;25.80;;
53036;SDS011;38924;52.134;4.666;2023-04-01T04:46:48;61.10;;;29.42;;
53036;SDS011;38924;52.134;4.666;2023-04-01T04:49:15;58.15;;;29.05;;
53036;SDS011;38924;52.134;4.666;2023-04-01T04:51:40;71.28;;;31.25;;
53036;SDS011;38924;52.134;4.666;2023-04-01T04:54:06;66.18;;;29.95;;
53036;SDS011;38924;52.134;4.666;2023-04-01T04:56:45;73.65;;;31.65;;
53036;SDS011;38924;52.134;4.666;2023-04-01T04:59:11;75.72;;;30.27;;
53036;SDS011;38924;52.134;4.666;2023-04-01T05:01:50;66.90;;;29.05;;
53036;SDS011;38924;52.134;4.666;2023-04-01T05:04:16;72.38;;;28.50;;
53036;SDS011;38924;52.134;4.666;2023-04-01T05:06:42;62.67;;;29.38;;
53036;SDS011;38924;52.134;4.666;2023-04-01T05:09:08;67.35;;;28.40;;
53036;SDS011;38924;52.134;4.666;2023-04-01T05:11:33;54.72;;;26.90;;
53036;SDS011;38924;52.134;4.666;2023-04-01T05:13:59;65.90;;;27.70;;
53036;SDS011;38924;52.134;4.666;2023-04-01T05:16:25;56.55;;;25.90;;
53036;SDS011;38924;52.134;4.666;2023-04-01T05:18:57;58.58;;;24.95;;
53036;SDS011;38924;52.134;4.666;2023-04-01T05:21:23;50.05;;;24.00;;
53036;SDS011;38924;52.134;4.666;2023-04-01T05:23:49;47.15;;;24.25;;
53036;SDS011;38924;52.134;4.666;2023-04-01T05:26:15;43.90;;;24.63;;
53036;SDS011;38924;52.134;4.666;2023-04-01T05:28:41;53.83;;;24.35;;
53036;SDS011;38924;52.134;4.666;2023-04-01T05:31:07;59.85;;;26.17;;
53036;SDS011;38924;52.134;4.666;2023-04-01T05:33:38;54.83;;;27.45;;
53036;SDS011;38924;52.134;4.666;2023-04-01T05:38:33;60.08;;;27.75;;
53036;SDS011;38924;52.134;4.666;2023-04-01T05:40:59;66.97;;;28.10;;
53036;SDS011;38924;52.134;4.666;2023-04-01T05:43:25;52.92;;;27.65;;
53036;SDS011;38924;52.134;4.666;2023-04-01T05:45:53;63.10;;;30.38;;
53036;SDS011;38924;52.134;4.666;2023-04-01T05:48:32;57.05;;;28.50;;
53036;SDS011;38924;52.134;4.666;2023-04-01T05:51:00;58.65;;;27.10;;
53036;SDS011;38924;52.134;4.666;2023-04-01T05:53:26;62.17;;;27.40;;
53036;SDS011;38924;52.134;4.666;2023-04-01T05:55:51;55.55;;;26.05;;
53036;SDS011;38924;52.134;4.666;2023-04-01T05:58:17;54.45;;;25.38;;
53036;SDS011;38924;52.134;4.666;2023-04-01T06:00:45;47.67;;;24.92;;
53036;SDS011;38924;52.134;4.666;2023-04-01T06:03:12;50.67;;;26.02;;
53036;SDS011;38924;52.134;4.666;2023-04-01T06:05:41;44.13;;;24.17;;
53036;SDS011;38924;52.134;4.666;2023-04-01T06:08:12;55.10;;;27.63;;
53036;SDS011;38924;52.134;4.666;2023-04-01T06:10:42;70.53;;;27.92;;
53036;SDS011;38924;52.134;4.666;2023-04-01T06:16:10;70.57;;;32.30;;
53036;SDS011;38924;52.134;4.666;2023-04-01T06:28:46;71.18;;;30.83;;
53036;SDS011;38924;52.134;4.666;2023-04-01T06:34:08;70.30;;;33.13;;
53036;SDS011;38924;52.134;4.666;2023-04-01T06:44:32;65.30;;;31.85;;
53036;SDS011;38924;52.134;4.666;2023-04-01T06:47:33;67.75;;;33.08;;
53036;SDS011;38924;52.134;4.666;2023-04-01T06:53:17;67.65;;;32.58;;
53036;SDS011;38924;52.134;4.666;2023-04-01T06:56:07;64.20;;;29.00;;
53036;SDS011;38924;52.134;4.666;2023-04-01T06:58:58;67.90;;;31.13;;
53036;SDS011;38924;52.134;4.666;2023-04-01T07:01:32;61.30;;;27.70;;
53036;SDS011;38924;52.134;4.666;2023-04-01T07:04:00;74.18;;;30.38;;
53036;SDS011;38924;52.134;4.666;2023-04-01T07:06:30;63.55;;;32.25;;
53036;SDS011;38924;52.134;4.666;2023-04-01T07:09:02;67.75;;;32.60;;
53036;SDS011;38924;52.134;4.666;2023-04-01T07:11:50;64.55;;;31.40;;
53036;SDS011;38924;52.134;4.666;2023-04-01T07:14:36;67.35;;;28.77;;
53036;SDS011;38924;52.134;4.666;2023-04-01T07:17:08;58.03;;;28.92;;
53036;SDS011;38924;52.134;4.666;2023-04-01T07:19:54;56.80;;;30.35;;
53036;SDS011;38924;52.134;4.666;2023-04-01T07:22:41;61.92;;;31.95;;
53036;SDS011;38924;52.134;4.666;2023-04-01T07:25:18;58.80;;;26.67;;
53036;SDS011;38924;52.134;4.666;2023-04-01T07:27:54;69.93;;;30.70;;
53036;SDS011;38924;52.134;4.666;2023-04-01T07:30:23;54.58;;;26.60;;
53036;SDS011;38924;52.134;4.666;2023-04-01T07:35:30;51.08;;;25.65;;
53036;SDS011;38924;52.134;4.666;2023-04-01T07:43:11;54.83;;;25.08;;
53036;SDS011;38924;52.134;4.666;2023-04-01T07:45:50;57.72;;;24.13;;
53036;SDS011;38924;52.134;4.666;2023-04-01T07:48:24;58.87;;;26.37;;
53036;SDS011;38924;52.134;4.666;2023-04-01T07:51:00;67.85;;;27.27;;
53036;SDS011;38924;52.134;4.666;2023-04-01T07:53:33;46.10;;;23.45;;
53036;SDS011;38924;52.134;4.666;2023-04-01T07:56:05;53.10;;;23.02;;
53036;SDS011;38924;52.134;4.666;2023-04-01T07:58:50;52.90;;;24.52;;
53036;SDS011;38924;52.134;4.666;2023-04-01T08:04:27;38.05;;;24.08;;
53036;SDS011;38924;52.134;4.666;2023-04-01T08:07:10;42.92;;;24.17;;
53036;SDS011;38924;52.134;4.666;2023-04-01T08:13:05;42.55;;;24.92;;
53036;SDS011;38924;52.134;4.666;2023-04-01T08:18:41;41.20;;;24.02;;
53036;SDS011;38924;52.134;4.666;2023-04-01T08:21:23;36.97;;;24.52;;
53036;SDS011;38924;52.134;4.666;2023-04-01T08:23:51;39.97;;;22.58;;
53036;SDS011;38924;52.134;4.666;2023-04-01T08:26:37;35.03;;;22.42;;
53036;SDS011;38924;52.134;4.666;2023-04-01T08:29:08;44.28;;;25.52;;
53036;SDS011;38924;52.134;4.666;2023-04-01T08:31:37;37.88;;;23.58;;
53036;SDS011;38924;52.134;4.666;2023-04-01T08:34:08;47.00;;;23.38;;
53036;SDS011;38924;52.134;4.666;2023-04-01T08:36:37;41.63;;;25.00;;
53036;SDS011;38924;52.134;4.666;2023-04-01T08:39:18;35.22;;;21.17;;
53036;SDS011;38924;52.134;4.666;2023-04-01T08:45:04;40.00;;;22.10;;
53036;SDS011;38924;52.134;4.666;2023-04-01T08:50:12;26.90;;;17.90;;
53036;SDS011;38924;52.134;4.666;2023-04-01T08:53:00;27.25;;;19.92;;
53036;SDS011;38924;52.134;4.666;2023-04-01T08:58:28;27.80;;;17.70;;
53036;SDS011;38924;52.134;4.666;2023-04-01T09:01:13;27.67;;;17.63;;
53036;SDS011;38924;52.134;4.666;2023-04-01T09:06:35;30.27;;;19.27;;
53036;SDS011;38924;52.134;4.666;2023-04-01T09:45:43;13.82;;;11.75;;
53036;SDS011;38924;52.134;4.666;2023-04-01T09:50:50;13.48;;;11.48;;
53036;SDS011;38924;52.134;4.666;2023-04-01T10:03:54;14.20;;;11.88;;
53036;SDS011;38924;52.134;4.666;2023-04-01T10:11:23;15.15;;;11.95;;
53036;SDS011;38924;52.134;4.666;2023-04-01T10:14:16;22.63;;;14.40;;
53036;SDS011;38924;52.134;4.666;2023-04-01T10:22:24;24.02;;;16.88;;
53036;SDS011;38924;52.134;4.666;2023-04-01T10:50:13;22.00;;;16.05;;
53036;SDS011;38924;52.134;4.666;2023-04-01T11:07:22;15.82;;;14.05;;
53036;SDS011;38924;52.134;4.666;2023-04-01T11:33:56;17.48;;;15.20;;
53036;SDS011;38924;52.134;4.666;2023-04-01T11:39:17;21.67;;;16.85;;
53036;SDS011;38924;52.134;4.666;2023-04-01T11:47:55;26.73;;;18.53;;
53036;SDS011;38924;52.134;4.666;2023-04-01T11:53:13;30.83;;;18.70;;
53036;SDS011;38924;52.134;4.666;2023-04-01T11:55:47;28.17;;;20.88;;
53036;SDS011;38924;52.134;4.666;2023-04-01T12:13:42;25.35;;;19.92;;
53036;SDS011;38924;52.134;4.666;2023-04-01T12:18:45;25.10;;;18.27;;
53036;SDS011;38924;52.134;4.666;2023-04-01T12:31:42;28.20;;;17.85;;
53036;SDS011;38924;52.134;4.666;2023-04-01T12:34:24;33.40;;;19.45;;
53036;SDS011;38924;52.134;4.666;2023-04-01T12:57:55;28.17;;;17.50;;
53036;SDS011;38924;52.134;4.666;2023-04-01T13:00:30;42.05;;;17.80;;
53036;SDS011;38924;52.134;4.666;2023-04-01T13:15:39;22.25;;;12.85;;
53036;SDS011;38924;52.134;4.666;2023-04-01T13:25:51;17.67;;;13.00;;
53036;SDS011;38924;52.134;4.666;2023-04-01T13:28:26;21.35;;;12.48;;
53036;SDS011;38924;52.134;4.666;2023-04-01T13:31:09;25.13;;;14.50;;
53036;SDS011;38924;52.134;4.666;2023-04-01T13:33:42;25.20;;;14.57;;
53036;SDS011;38924;52.134;4.666;2023-04-01T13:36:14;20.90;;;13.85;;
53036;SDS011;38924;52.134;4.666;2023-04-01T13:38:53;18.27;;;13.13;;
53036;SDS011;38924;52.134;4.666;2023-04-01T13:41:45;31.70;;;15.18;;
53036;SDS011;38924;52.134;4.666;2023-04-01T13:47:05;19.87;;;11.87;;
53036;SDS011;38924;52.134;4.666;2023-04-01T13:50:15;20.02;;;13.30;;
53036;SDS011;38924;52.134;4.666;2023-04-01T13:57:52;24.73;;;12.38;;
53036;SDS011;38924;52.134;4.666;2023-04-01T14:13:23;16.35;;;10.48;;
53036;SDS011;38924;52.134;4.666;2023-04-01T14:15:55;11.27;;;10.25;;
53036;SDS011;38924;52.134;4.666;2023-04-01T14:23:43;11.85;;;10.95;;
53036;SDS011;38924;52.134;4.666;2023-04-01T14:41:58;13.35;;;12.23;;
53036;SDS011;38924;52.134;4.666;2023-04-01T14:47:54;12.30;;;11.35;;
53036;SDS011;38924;52.134;4.666;2023-04-01T14:52:40;13.50;;;12.20;;
53036;SDS011;38924;52.134;4.666;2023-04-01T14:56:07;13.30;;;12.20;;
53036;SDS011;38924;52.134;4.666;2023-04-01T15:00:38;12.52;;;11.38;;
53036;SDS011;38924;52.134;4.666;2023-04-01T15:03:30;13.25;;;12.00;;
53036;SDS011;38924;52.134;4.666;2023-04-01T15:18:23;14.77;;;13.48;;
53036;SDS011;38924;52.134;4.666;2023-04-01T15:26:13;15.80;;;14.27;;
53036;SDS011;38924;52.134;4.666;2023-04-01T15:29:06;17.35;;;15.60;;
53036;SDS011;38924;52.134;4.666;2023-04-01T15:31:29;16.45;;;14.95;;
53036;SDS011;38924;52.134;4.666;2023-04-01T15:34:03;18.45;;;16.50;;
53036;SDS011;38924;52.134;4.666;2023-04-01T15:36:36;15.90;;;14.60;;
53036;SDS011;38924;52.134;4.666;2023-04-01T15:44:26;17.40;;;15.55;;
53036;SDS011;38924;52.134;4.666;2023-04-01T15:46:51;16.85;;;15.35;;
53036;SDS011;38924;52.134;4.666;2023-04-01T15:49:20;16.70;;;15.10;;
53036;SDS011;38924;52.134;4.666;2023-04-01T16:07:27;16.08;;;14.45;;
53036;SDS011;38924;52.134;4.666;2023-04-01T16:09:58;18.10;;;16.50;;
53036;SDS011;38924;52.134;4.666;2023-04-01T16:12:35;17.17;;;15.57;;
53036;SDS011;38924;52.134;4.666;2023-04-01T16:17:53;15.98;;;14.68;;
53036;SDS011;38924;52.134;4.666;2023-04-01T16:20:25;18.13;;;14.88;;
53036;SDS011;38924;52.134;4.666;2023-04-01T16:23:02;14.55;;;13.35;;
53036;SDS011;38924;52.134;4.666;2023-04-01T16:25:36;15.70;;;14.25;;
53036;SDS011;38924;52.134;4.666;2023-04-01T16:28:13;22.10;;;19.25;;
53036;SDS011;38924;52.134;4.666;2023-04-01T16:38:50;17.35;;;13.73;;
53036;SDS011;38924;52.134;4.666;2023-04-01T16:41:24;18.70;;;16.75;;
53036;SDS011;38924;52.134;4.666;2023-04-01T16:43:58;18.80;;;16.48;;
53036;SDS011;38924;52.134;4.666;2023-04-01T16:46:38;16.42;;;14.80;;
53036;SDS011;38924;52.134;4.666;2023-04-01T16:51:42;15.82;;;14.27;;
53036;SDS011;38924;52.134;4.666;2023-04-01T17:01:40;16.38;;;14.82;;
53036;SDS011;38924;52.134;4.666;2023-04-01T17:04:11;15.82;;;14.38;;
53036;SDS011;38924;52.134;4.666;2023-04-01T17:06:48;22.85;;;20.63;;
53036;SDS011;38924;52.134;4.666;2023-04-01T17:09:20;18.60;;;16.75;;
53036;SDS011;38924;52.134;4.666;2023-04-01T17:35:01;13.25;;;12.13;;
53036;SDS011;38924;52.134;4.666;2023-04-01T17:37:43;13.30;;;12.10;;
53036;SDS011;38924;52.134;4.666;2023-04-01T17:40:15;12.70;;;11.70;;
53036;SDS011;38924;52.134;4.666;2023-04-01T17:47:55;11.93;;;11.02;;
53036;SDS011;38924;52.134;4.666;2023-04-01T18:06:07;11.57;;;10.73;;
53036;SDS011;38924;52.134;4.666;2023-04-01T18:09:00;11.07;;;10.27;;
53036;SDS011;38924;52.134;4.666;2023-04-01T18:14:13;10.52;;;9.82;;
53036;SDS011;38924;52.134;4.666;2023-04-01T18:21:55;13.05;;;12.02;;
53036;SDS011;38924;52.134;4.666;2023-04-01T18:24:27;12.68;;;11.82;;
53036;SDS011;38924;52.134;4.666;2023-04-01T18:27:04;13.88;;;12.88;;
53036;SDS011;38924;52.134;4.666;2023-04-01T18:32:15;14.25;;;13.05;;
53036;SDS011;38924;52.134;4.666;2023-04-01T18:34:49;12.38;;;11.35;;
53036;SDS011;38924;52.134;4.666;2023-04-01T18:37:22;12.85;;;11.90;;
53036;SDS011;38924;52.134;4.666;2023-04-01T18:42:53;13.52;;;12.43;;
53036;SDS011;38924;52.134;4.666;2023-04-01T18:45:27;13.07;;;12.00;;
53036;SDS011;38924;52.134;4.666;2023-04-01T18:50:47;14.65;;;13.10;;
53036;SDS011;38924;52.134;4.666;2023-04-01T18:53:35;14.48;;;12.88;;
53036;SDS011;38924;52.134;4.666;2023-04-01T18:56:07;13.35;;;12.35;;
53036;SDS011;38924;52.134;4.666;2023-04-01T18:58:36;13.43;;;12.43;;
53036;SDS011;38924;52.134;4.666;2023-04-01T19:01:07;14.10;;;13.02;;
53036;SDS011;38924;52.134;4.666;2023-04-01T19:03:39;11.98;;;11.13;;
53036;SDS011;38924;52.134;4.666;2023-04-01T19:06:14;12.95;;;11.95;;
53036;SDS011;38924;52.134;4.666;2023-04-01T19:08:45;11.85;;;11.10;;
53036;SDS011;38924;52.134;4.666;2023-04-01T19:16:29;13.77;;;12.77;;
53036;SDS011;38924;52.134;4.666;2023-04-01T19:18:59;13.63;;;12.27;;
53036;SDS011;38924;52.134;4.666;2023-04-01T19:21:40;14.20;;;13.07;;
53036;SDS011;38924;52.134;4.666;2023-04-01T19:26:45;13.70;;;12.52;;
53036;SDS011;38924;52.134;4.666;2023-04-01T19:29:23;15.02;;;13.90;;
53036;SDS011;38924;52.134;4.666;2023-04-01T19:31:51;14.50;;;13.20;;
53036;SDS011;38924;52.134;4.666;2023-04-01T19:34:27;17.65;;;15.73;;
53036;SDS011;38924;52.134;4.666;2023-04-01T19:36:59;19.30;;;17.15;;
53036;SDS011;38924;52.134;4.666;2023-04-01T19:42:05;18.35;;;16.55;;
53036;SDS011;38924;52.134;4.666;2023-04-01T19:44:41;18.60;;;16.70;;
53036;SDS011;38924;52.134;4.666;2023-04-01T19:47:35;16.15;;;14.63;;
53036;SDS011;38924;52.134;4.666;2023-04-01T19:52:48;17.05;;;15.25;;
53036;SDS011;38924;52.134;4.666;2023-04-01T19:57:49;18.30;;;16.20;;
53036;SDS011;38924;52.134;4.666;2023-04-01T20:00:28;16.55;;;14.98;;
53036;SDS011;38924;52.134;4.666;2023-04-01T20:03:01;20.30;;;18.20;;
53036;SDS011;38924;52.134;4.666;2023-04-01T20:08:02;16.58;;;14.85;;
53036;SDS011;38924;52.134;4.666;2023-04-01T20:11:17;17.58;;;15.80;;
53036;SDS011;38924;52.134;4.666;2023-04-01T20:16:06;13.48;;;12.38;;
53036;SDS011;38924;52.134;4.666;2023-04-01T20:18:37;17.00;;;15.38;;
53036;SDS011;38924;52.134;4.666;2023-04-01T20:26:22;16.95;;;15.25;;
53036;SDS011;38924;52.134;4.666;2023-04-01T20:44:43;11.55;;;10.55;;
53036;SDS011;38924;52.134;4.666;2023-04-01T20:47:16;13.32;;;12.30;;
53036;SDS011;38924;52.134;4.666;2023-04-01T20:52:41;12.93;;;11.63;;
53036;SDS011;38924;52.134;4.666;2023-04-01T20:55:16;13.85;;;12.65;;
53036;SDS011;38924;52.134;4.666;2023-04-01T20:57:50;13.60;;;12.30;;
53036;SDS011;38924;52.134;4.666;2023-04-01T21:02:49;15.48;;;13.95;;
53036;SDS011;38924;52.134;4.666;2023-04-01T21:07:52;18.60;;;15.38;;
53036;SDS011;38924;52.134;4.666;2023-04-01T21:13:58;14.45;;;13.25;;
53036;SDS011;38924;52.134;4.666;2023-04-01T21:21:16;11.15;;;10.15;;
53036;SDS011;38924;52.134;4.666;2023-04-01T21:23:51;12.82;;;11.10;;
53036;SDS011;38924;52.134;4.666;2023-04-01T21:31:49;12.55;;;11.40;;
53036;SDS011;38924;52.134;4.666;2023-04-01T21:45:02;10.15;;;8.93;;
53036;SDS011;38924;52.134;4.666;2023-04-01T21:57:54;11.52;;;10.43;;
53036;SDS011;38924;52.134;4.666;2023-04-01T22:00:31;10.57;;;9.68;;
53036;SDS011;38924;52.134;4.666;2023-04-01T22:05:30;13.18;;;11.90;;
53036;SDS011;38924;52.134;4.666;2023-04-01T22:08:04;13.80;;;11.43;;
53036;SDS011;38924;52.134;4.666;2023-04-01T22:13:23;13.45;;;12.15;;
53036;SDS011;38924;52.134;4.666;2023-04-01T22:18:31;11.88;;;10.77;;
53036;SDS011;38924;52.134;4.666;2023-04-01T22:21:18;13.05;;;11.90;;
53036;SDS011;38924;52.134;4.666;2023-04-01T22:23:47;13.27;;;11.27;;
53036;SDS011;38924;52.134;4.666;2023-04-01T22:26:35;13.27;;;11.98;;
53036;SDS011;38924;52.134;4.666;2023-04-01T22:29:17;14.00;;;12.55;;
53036;SDS011;38924;52.134;4.666;2023-04-01T22:31:52;14.73;;;12.50;;
53036;SDS011;38924;52.134;4.666;2023-04-01T22:34:23;13.20;;;11.80;;
53036;SDS011;38924;52.134;4.666;2023-04-01T22:36:58;15.02;;;13.52;;
53036;SDS011;38924;52.134;4.666;2023-04-01T22:39:48;14.65;;;13.23;;
53036;SDS011;38924;52.134;4.666;2023-04-01T22:42:25;17.58;;;13.65;;
53036;SDS011;38924;52.134;4.666;2023-04-01T22:45:37;19.92;;;13.98;;
53036;SDS011;38924;52.134;4.666;2023-04-01T22:47:55;16.90;;;13.25;;
53036;SDS011;38924;52.134;4.666;2023-04-01T22:55:38;14.90;;;12.68;;
53036;SDS011;38924;52.134;4.666;2023-04-01T22:58:07;13.57;;;12.18;;
53036;SDS011;38924;52.134;4.666;2023-04-01T23:00:36;14.85;;;12.00;;
53036;SDS011;38924;52.134;4.666;2023-04-01T23:05:50;17.20;;;13.15;;
53036;SDS011;38924;52.134;4.666;2023-04-01T23:08:37;14.50;;;13.00;;
53036;SDS011;38924;52.134;4.666;2023-04-01T23:11:18;19.58;;;13.98;;
53036;SDS011;38924;52.134;4.666;2023-04-01T23:13:50;19.33;;;14.60;;
53036;SDS011;38924;52.134;4.666;2023-04-01T23:16:26;17.20;;;14.13;;
53036;SDS011;38924;52.134;4.666;2023-04-01T23:19:11;16.42;;;13.90;;
53036;SDS011;38924;52.134;4.666;2023-04-01T23:21:43;15.65;;;13.75;;
53036;SDS011;38924;52.134;4.666;2023-04-01T23:24:19;16.23;;;13.40;;
53036;SDS011;38924;52.134;4.666;2023-04-01T23:27:03;19.38;;;14.18;;
53036;SDS011;38924;52.134;4.666;2023-04-01T23:29:31;14.52;;;12.75;;
53036;SDS011;38924;52.134;4.666;2023-04-01T23:32:01;18.92;;;14.00;;
53036;SDS011;38924;52.134;4.666;2023-04-01T23:34:28;19.40;;;14.75;;
53036;SDS011;38924;52.134;4.666;2023-04-01T23:36:56;16.23;;;12.82;;
53036;SDS011;38924;52.134;4.666;2023-04-01T23:39:25;23.00;;;16.10;;
53036;SDS011;38924;52.134;4.666;2023-04-01T23:41:53;20.58;;;15.07;;
53036;SDS011;38924;52.134;4.666;2023-04-01T23:44:19;16.85;;;13.20;;
53036;SDS011;38924;52.134;4.666;2023-04-01T23:46:46;19.00;;;14.30;;
53036;SDS011;38924;52.134;4.666;2023-04-01T23:49:14;24.23;;;15.15;;
53036;SDS011;38924;52.134;4.666;2023-04-01T23:51:52;19.42;;;14.13;;
53036;SDS011;38924;52.134;4.666;2023-04-01T23:54:19;18.55;;;13.07;;
53036;SDS011;38924;52.134;4.666;2023-04-01T23:56:50;16.95;;;13.75;;
53036;SDS011;38924;52.134;4.666;2023-04-01T23:59:17;18.45;;;16.02;;
